Ana Sayfa
METAR-TAF:

METAR-TAF

Havaalanları :

Dakar, Senegal

Enlem: 14-44N, Boylam: 017-30W, yükseklik: 27 m

Güncel hava durumu gözlemi

Rapor saat 23:00 UTC de 1 saat ve 14 dakika önce yapıldı.
Rüzgar kuzeydan 14 kt
Sıcaklık 20°C
Nem 83%
Basınç 1015 hPa
Görüş mesafesi: 8000 m

METAR: GOOY 162300Z 36014KT 8000 NSC 20/17 Q1015

Saat: 00:14 (00:14 UTC)

Tahmin

Rapor saat 23:30 UTC de 44 dakika önce yapıldı.
Ayın 17'si saat 00 UTC'den ayın 18'si saat 06 UTC'ye kadar geçerli Tahmin
Rüzgar kuzeydan 12 kt
Görüş mesafesi: 8000 m

TAF: GOOY 162330Z 1700/1806 36012KT 8000 NSC

4.000'den fazla havaalanı için hava durumu gözlemleri ve tahminleri (METAR ve TAF raporları).

Kullanılabilir istasyonlar harita üzerinde sarı ve kırmızı noktalarla gösterilir.

İstasyonun adını görmek için fareyi noktanın üzerinde gezdirin.

Sonrasında hava gözlem ve tahminlerini görmek için tıklayın.

Haritayı değiştirmek için: yaklaştırmak için siyah artı işaretli yeşil düğmeye ve uzaklaştırmak için de eksi işaretli düğmeye hızla tıklayın; bitişik haritalar için yeşil okları kullanın.


METAR-TAF: